Brandon Kyle — WDJ3076 — position and weather

sailwx.info

Track history (hours):
 
Tides and Currents Weather Stations Pressure Air Temp Water Temp Dewpoint Dewpoint Depression Visibility Wind Speed Wind Dir Waves Ship Positions

Brandon Kyle

Owner: D&S Marine Service LLC Brandon Kyle, Gray, LA. More information available from US FCC via Universal Licensing System and Coast Guard Vessel Documentation Center.

Last reported at 2018-May-19 05:57 UTC. Time now 2018-May-22 17:55 UTC.
Position N 28°56' W 095°19'.

Length 206 m; draft 3 m.

Type: . MMSI: 367764520.

Date/timePositionNaut miles runAvg speedWind from/ knotsBaromVisibWave heightAir tempDewpointWater temp
2018-May-19 05:57N 28°56' W 095°19'3 4.8
2018-May-19 05:22N 28°58' W 095°17'1 2.3
2018-May-19 04:57N 28°59' W 095°16'1 2.7
2018-May-19 04:27N 28°60' W 095°15'2 5.0
2018-May-19 04:00N 29°02' W 095°14'2 4.9
2018-May-19 03:30N 29°04' W 095°13'2 4.7
2018-May-19 03:00N 29°06' W 095°12'2 4.5
2018-May-19 02:30N 29°08' W 095°10'2 3.9
2018-May-19 02:00N 29°09' W 095°09'3 5.1
2018-May-19 01:30N 29°10' W 095°06'3 5.1
2018-May-19 01:00N 29°12' W 095°04'2 4.6
2018-May-19 00:30N 29°13' W 095°02'2 4.5
2018-May-19 00:00N 29°15' W 095°00'2 4.9
2018-May-18 23:30N 29°17' W 094°58'1 2.2
2018-May-18 23:00N 29°17' W 094°57'2 4.5
2018-May-18 22:30N 29°17' W 094°54'2 4.7
2018-May-18 22:00N 29°19' W 094°52'3 5.3
2018-May-18 21:30N 29°20' W 094°50'2 4.7
2018-May-18 21:00N 29°22' W 094°48'3 4.0
2018-May-18 20:16N 29°24' W 094°45'21 3.5
2018-May-18 14:25N 29°34' W 094°25'2 2.5
2018-May-18 13:39N 29°36' W 094°23'1 1.9
2018-May-18 13:22N 29°36' W 094°23'1 3.0
2018-May-18 12:57N 29°36' W 094°22'1 2.1
2018-May-18 12:28N 29°37' W 094°21'1 1.9
2018-May-18 11:58N 29°37' W 094°20'1 2.6
2018-May-18 11:30N 29°38' W 094°18'2 3.4
2018-May-18 11:00N 29°39' W 094°17'2 3.3
2018-May-18 10:30N 29°40' W 094°15'2 3.4
2018-May-18 10:00N 29°40' W 094°13'2 3.9
2018-May-18 09:30N 29°41' W 094°11'2 3.7
2018-May-18 09:00N 29°42' W 094°09'2 3.9
2018-May-18 08:30N 29°43' W 094°07'2 3.7
2018-May-18 08:00N 29°44' W 094°06'2 3.1
2018-May-18 07:30N 29°45' W 094°04'2 3.1
2018-May-18 07:00N 29°46' W 094°03'2 3.7
2018-May-18 06:30N 29°47' W 094°01'2 3.6
2018-May-18 06:00N 29°48' W 093°60'2 4.1
2018-May-18 05:30N 29°49' W 093°58'3 6.1
2018-May-18 05:00N 29°52' W 093°56'4 7.1
2018-May-18 04:30N 29°55' W 093°53'3 6.7
2018-May-18 04:00N 29°58' W 093°51'3 5.3
2018-May-18 03:30N 29°59' W 093°49'3 5.8
2018-May-18 03:00N 30°00' W 093°46'3 5.4
2018-May-18 02:30N 30°03' W 093°44'3 5.0
2018-May-18 01:58N 30°04' W 093°41'2 3.6
2018-May-18 01:30N 30°04' W 093°39'2 4.4
2018-May-18 00:56N 30°04' W 093°36'2 4.1
2018-May-18 00:30N 30°04' W 093°34'2 4.0
2018-May-18 00:00N 30°04' W 093°32'2 4.0
2018-May-17 23:30N 30°04' W 093°30'2 4.1
2018-May-17 22:59N 30°04' W 093°27'2 3.6
2018-May-17 22:30N 30°04' W 093°25'2 4.1
2018-May-17 22:00N 30°04' W 093°23'2 3.3
2018-May-17 21:30N 30°04' W 093°21'2 3.5
2018-May-17 21:00N 30°05' W 093°20'2 3.2
2018-May-17 20:30N 30°05' W 093°18'1 1.3
2018-May-17 20:00N 30°05' W 093°17'1 1.8
2018-May-17 19:30N 30°04' W 093°16'0 0.0
2018-May-17 19:00N 30°04' W 093°16'0 0.1
2018-May-17 18:30N 30°05' W 093°16'0 0.0
2018-May-17 18:00N 30°05' W 093°16'0 0.0
2018-May-17 17:30N 30°04' W 093°16'0 0.0
2018-May-17 17:00N 30°05' W 093°16'0 0.0
2018-May-17 16:30N 30°05' W 093°16'0 0.0
2018-May-17 16:00N 30°04' W 093°16'0 0.5
2018-May-17 15:30N 30°04' W 093°16'2 3.7
2018-May-17 15:00N 30°02' W 093°16'2 3.9
2018-May-17 14:30N 30°01' W 093°14'2 3.8
2018-May-17 14:00N 29°60' W 093°13'2 3.6
2018-May-17 13:30N 29°58' W 093°12'2 4.1
2018-May-17 13:00N 29°57' W 093°10'2 3.7
2018-May-17 12:30N 29°56' W 093°08'2 4.0
2018-May-17 12:00N 29°56' W 093°06'2 4.0
2018-May-17 11:30N 29°56' W 093°03'2 4.0
2018-May-17 10:59N 29°56' W 093°01'2 3.9
2018-May-17 10:29N 29°56' W 092°59'2 3.6
2018-May-17 09:59N 29°56' W 092°57'2 3.9
2018-May-17 09:30N 29°56' W 092°55'2 3.9
2018-May-17 09:00N 29°57' W 092°53'2 4.2
2018-May-17 08:30N 29°58' W 092°50'2 4.3
2018-May-17 07:59N 29°58' W 092°48'3 4.4
2018-May-17 07:23N 29°58' W 092°45'1 3.4
2018-May-17 07:00N 29°57' W 092°43'2 4.5
2018-May-17 06:29N 29°56' W 092°41'1 2.6
2018-May-17 06:00N 29°56' W 092°40'0 0.1
2018-May-17 05:30N 29°56' W 092°40'0 0.1
2018-May-17 05:00N 29°56' W 092°40'0 0.0
2018-May-17 04:30N 29°56' W 092°40'2 2.3
2018-May-17 03:43N 29°55' W 092°38'1 4.0
2018-May-17 03:29N 29°55' W 092°36'2 3.7
2018-May-17 02:58N 29°55' W 092°34'2 3.9
2018-May-17 02:30N 29°54' W 092°32'2 3.9
2018-May-17 01:58N 29°54' W 092°30'2 3.7
2018-May-17 01:22N 29°54' W 092°27'1 3.5
2018-May-17 01:00N 29°53' W 092°26'2 3.8
2018-May-17 00:29N 29°53' W 092°24'84 3.0
2018-May-15 20:41N 29°32' W 090°50'1 4.5
2018-May-15 20:30N 29°32' W 090°49'2 4.4
2018-May-15 20:00N 29°32' W 090°47'2 3.2
2018-May-15 19:30N 29°33' W 090°45'2 3.5
2018-May-15 19:00N 29°34' W 090°43'2 3.5
2018-May-15 18:30N 29°36' W 090°43'1 2.8
2018-May-15 18:00N 29°37' W 090°42'0 0.3
2018-May-15 17:30N 29°37' W 090°42'1 1.1
2018-May-15 17:00N 29°36' W 090°41'1 2.0
2018-May-15 16:30N 29°36' W 090°40'1 2.7
2018-May-15 16:00N 29°36' W 090°39'2 3.7
2018-May-15 15:30N 29°35' W 090°37'2 3.8
2018-May-15 15:00N 29°34' W 090°35'2 4.3
2018-May-15 14:30N 29°34' W 090°33'7 4.3
2018-May-15 12:52N 29°33' W 090°24'2 3.4
2018-May-15 12:26N 29°34' W 090°23'22 1.0
2018-May-14 12:58N 29°56' W 090°20'0 0.0
2018-May-14 12:30N 29°56' W 090°20'  
2018-May-09 13:04N 30°21' W 091°14'0 0.1
2018-May-09 12:58N 30°21' W 091°14'0 0.0
2018-May-09 12:25N 30°21' W 091°14'0 0.0
2018-May-09 11:58N 30°21' W 091°14'0 0.0
2018-May-09 11:25N 30°21' W 091°14'0 0.0
2018-May-09 10:52N 30°21' W 091°14'0 0.0
2018-May-09 10:25N 30°21' W 091°14'0 0.0
2018-May-09 09:31N 30°21' W 091°14'0 0.0
2018-May-09 09:25N 30°21' W 091°14'0 0.0
2018-May-09 08:55N 30°21' W 091°14'0 0.0
2018-May-09 06:52N 30°21' W 091°14'0 0.0
2018-May-09 06:22N 30°21' W 091°14'0 0.0
2018-May-09 06:00N 30°21' W 091°14'  
Track history (hours):
 
Tides and Currents Weather Stations Pressure Air Temp Water Temp Dewpoint Dewpoint Depression Visibility Wind Speed Wind Dir Waves Ship Positions

Brandon Kyle

Owner: D&S Marine Service LLC Brandon Kyle, Gray, LA. More information available from US FCC via Universal Licensing System and Coast Guard Vessel Documentation Center.

Last reported at 2018-May-19 05:57 UTC. Time now 2018-May-22 17:55 UTC.
Position N 28°56' W 095°19'.

Length 206 m; draft 3 m.

Type: . MMSI: 367764520.

Date/timePositionNaut miles runAvg speedWind from/ knotsBaromVisibWave heightAir tempDewpointWater temp
2018-May-19 05:57N 28°56' W 095°19'3 4.8
2018-May-19 05:22N 28°58' W 095°17'1 2.3
2018-May-19 04:57N 28°59' W 095°16'1 2.7
2018-May-19 04:27N 28°60' W 095°15'2 5.0
2018-May-19 04:00N 29°02' W 095°14'2 4.9
2018-May-19 03:30N 29°04' W 095°13'2 4.7
2018-May-19 03:00N 29°06' W 095°12'2 4.5
2018-May-19 02:30N 29°08' W 095°10'2 3.9
2018-May-19 02:00N 29°09' W 095°09'3 5.1
2018-May-19 01:30N 29°10' W 095°06'3 5.1
2018-May-19 01:00N 29°12' W 095°04'2 4.6
2018-May-19 00:30N 29°13' W 095°02'2 4.5
2018-May-19 00:00N 29°15' W 095°00'2 4.9
2018-May-18 23:30N 29°17' W 094°58'1 2.2
2018-May-18 23:00N 29°17' W 094°57'2 4.5
2018-May-18 22:30N 29°17' W 094°54'2 4.7
2018-May-18 22:00N 29°19' W 094°52'3 5.3
2018-May-18 21:30N 29°20' W 094°50'2 4.7
2018-May-18 21:00N 29°22' W 094°48'3 4.0
2018-May-18 20:16N 29°24' W 094°45'21 3.5
2018-May-18 14:25N 29°34' W 094°25'2 2.5
2018-May-18 13:39N 29°36' W 094°23'1 1.9
2018-May-18 13:22N 29°36' W 094°23'1 3.0
2018-May-18 12:57N 29°36' W 094°22'1 2.1
2018-May-18 12:28N 29°37' W 094°21'1 1.9
2018-May-18 11:58N 29°37' W 094°20'1 2.6
2018-May-18 11:30N 29°38' W 094°18'2 3.4
2018-May-18 11:00N 29°39' W 094°17'2 3.3
2018-May-18 10:30N 29°40' W 094°15'2 3.4
2018-May-18 10:00N 29°40' W 094°13'2 3.9
2018-May-18 09:30N 29°41' W 094°11'2 3.7
2018-May-18 09:00N 29°42' W 094°09'2 3.9
2018-May-18 08:30N 29°43' W 094°07'2 3.7
2018-May-18 08:00N 29°44' W 094°06'2 3.1
2018-May-18 07:30N 29°45' W 094°04'2 3.1
2018-May-18 07:00N 29°46' W 094°03'2 3.7
2018-May-18 06:30N 29°47' W 094°01'2 3.6
2018-May-18 06:00N 29°48' W 093°60'2 4.1
2018-May-18 05:30N 29°49' W 093°58'3 6.1
2018-May-18 05:00N 29°52' W 093°56'4 7.1
2018-May-18 04:30N 29°55' W 093°53'3 6.7
2018-May-18 04:00N 29°58' W 093°51'3 5.3
2018-May-18 03:30N 29°59' W 093°49'3 5.8
2018-May-18 03:00N 30°00' W 093°46'3 5.4
2018-May-18 02:30N 30°03' W 093°44'3 5.0
2018-May-18 01:58N 30°04' W 093°41'2 3.6
2018-May-18 01:30N 30°04' W 093°39'2 4.4
2018-May-18 00:56N 30°04' W 093°36'2 4.1
2018-May-18 00:30N 30°04' W 093°34'2 4.0
2018-May-18 00:00N 30°04' W 093°32'2 4.0
2018-May-17 23:30N 30°04' W 093°30'2 4.1
2018-May-17 22:59N 30°04' W 093°27'2 3.6
2018-May-17 22:30N 30°04' W 093°25'2 4.1
2018-May-17 22:00N 30°04' W 093°23'2 3.3
2018-May-17 21:30N 30°04' W 093°21'2 3.5
2018-May-17 21:00N 30°05' W 093°20'2 3.2
2018-May-17 20:30N 30°05' W 093°18'1 1.3
2018-May-17 20:00N 30°05' W 093°17'1 1.8
2018-May-17 19:30N 30°04' W 093°16'0 0.0
2018-May-17 19:00N 30°04' W 093°16'0 0.1
2018-May-17 18:30N 30°05' W 093°16'0 0.0
2018-May-17 18:00N 30°05' W 093°16'0 0.0
2018-May-17 17:30N 30°04' W 093°16'0 0.0
2018-May-17 17:00N 30°05' W 093°16'0 0.0
2018-May-17 16:30N 30°05' W 093°16'0 0.0
2018-May-17 16:00N 30°04' W 093°16'0 0.5
2018-May-17 15:30N 30°04' W 093°16'2 3.7
2018-May-17 15:00N 30°02' W 093°16'2 3.9
2018-May-17 14:30N 30°01' W 093°14'2 3.8
2018-May-17 14:00N 29°60' W 093°13'2 3.6
2018-May-17 13:30N 29°58' W 093°12'2 4.1
2018-May-17 13:00N 29°57' W 093°10'2 3.7
2018-May-17 12:30N 29°56' W 093°08'2 4.0
2018-May-17 12:00N 29°56' W 093°06'2 4.0
2018-May-17 11:30N 29°56' W 093°03'2 4.0
2018-May-17 10:59N 29°56' W 093°01'2 3.9
2018-May-17 10:29N 29°56' W 092°59'2 3.6
2018-May-17 09:59N 29°56' W 092°57'2 3.9
2018-May-17 09:30N 29°56' W 092°55'2 3.9
2018-May-17 09:00N 29°57' W 092°53'2 4.2
2018-May-17 08:30N 29°58' W 092°50'2 4.3
2018-May-17 07:59N 29°58' W 092°48'3 4.4
2018-May-17 07:23N 29°58' W 092°45'1 3.4
2018-May-17 07:00N 29°57' W 092°43'2 4.5
2018-May-17 06:29N 29°56' W 092°41'1 2.6
2018-May-17 06:00N 29°56' W 092°40'0 0.1
2018-May-17 05:30N 29°56' W 092°40'0 0.1
2018-May-17 05:00N 29°56' W 092°40'0 0.0
2018-May-17 04:30N 29°56' W 092°40'2 2.3
2018-May-17 03:43N 29°55' W 092°38'1 4.0
2018-May-17 03:29N 29°55' W 092°36'2 3.7
2018-May-17 02:58N 29°55' W 092°34'2 3.9
2018-May-17 02:30N 29°54' W 092°32'2 3.9
2018-May-17 01:58N 29°54' W 092°30'2 3.7
2018-May-17 01:22N 29°54' W 092°27'1 3.5
2018-May-17 01:00N 29°53' W 092°26'2 3.8
2018-May-17 00:29N 29°53' W 092°24'84 3.0
2018-May-15 20:41N 29°32' W 090°50'1 4.5
2018-May-15 20:30N 29°32' W 090°49'2 4.4
2018-May-15 20:00N 29°32' W 090°47'2 3.2
2018-May-15 19:30N 29°33' W 090°45'2 3.5
2018-May-15 19:00N 29°34' W 090°43'2 3.5
2018-May-15 18:30N 29°36' W 090°43'1 2.8
2018-May-15 18:00N 29°37' W 090°42'0 0.3
2018-May-15 17:30N 29°37' W 090°42'1 1.1
2018-May-15 17:00N 29°36' W 090°41'1 2.0
2018-May-15 16:30N 29°36' W 090°40'1 2.7
2018-May-15 16:00N 29°36' W 090°39'2 3.7
2018-May-15 15:30N 29°35' W 090°37'2 3.8
2018-May-15 15:00N 29°34' W 090°35'2 4.3
2018-May-15 14:30N 29°34' W 090°33'7 4.3
2018-May-15 12:52N 29°33' W 090°24'2 3.4
2018-May-15 12:26N 29°34' W 090°23'22 1.0
2018-May-14 12:58N 29°56' W 090°20'0 0.0
2018-May-14 12:30N 29°56' W 090°20'  
2018-May-09 13:04N 30°21' W 091°14'0 0.1
2018-May-09 12:58N 30°21' W 091°14'0 0.0
2018-May-09 12:25N 30°21' W 091°14'0 0.0
2018-May-09 11:58N 30°21' W 091°14'0 0.0
2018-May-09 11:25N 30°21' W 091°14'0 0.0
2018-May-09 10:52N 30°21' W 091°14'0 0.0
2018-May-09 10:25N 30°21' W 091°14'0 0.0
2018-May-09 09:31N 30°21' W 091°14'0 0.0
2018-May-09 09:25N 30°21' W 091°14'0 0.0
2018-May-09 08:55N 30°21' W 091°14'0 0.0
2018-May-09 06:52N 30°21' W 091°14'0 0.0
2018-May-09 06:22N 30°21' W 091°14'0 0.0
2018-May-09 06:00N 30°21' W 091°14'  

Dump ship's entire track history